Time;durP1;ratioP1;P1;durP2;ratioP2;P2;SDS_P1;SDS_P2;PMS_P1;PMS_P2;Temp;Humidity;BMP_temperature;BMP_pressure;BME280_temperature;BME280_humidity;BME280_pressure;Samples;Min_cycle;Max_cycle;Signal;HPM_P1;HPM_P2
2023/03/10 00:01:11;;;;;;;15.75;6.65;;;10.90;99.90;;;;;;5003418;28;20030;-72
2023/03/10 00:03:37;;;;;;;19.20;6.78;;;10.90;99.90;;;;;;5006027;28;20026;-72
2023/03/10 00:06:03;;;;;;;11.77;5.85;;;10.90;99.90;;;;;;4997874;28;20038;-72
2023/03/10 00:08:29;;;;;;;12.23;5.95;;;10.90;99.90;;;;;;5014636;28;20053;-72
2023/03/10 00:10:54;;;;;;;11.45;6.03;;;11.00;99.90;;;;;;4993763;28;20033;-71
2023/03/10 00:13:20;;;;;;;9.25;4.93;;;11.00;99.90;;;;;;4999209;28;20030;-72
2023/03/10 00:15:47;;;;;;;12.38;4.65;;;11.00;99.90;;;;;;4979388;28;20042;-71
2023/03/10 00:18:13;;;;;;;9.57;4.53;;;11.00;99.90;;;;;;5003212;28;20738;-72
2023/03/10 00:20:38;;;;;;;6.53;4.00;;;11.00;99.90;;;;;;5007468;28;20105;-72
2023/03/10 00:23:04;;;;;;;6.55;4.32;;;11.00;99.90;;;;;;5000431;28;20041;-72
2023/03/10 00:25:30;;;;;;;13.90;5.55;;;11.00;99.90;;;;;;5006489;28;20395;-73
2023/03/10 00:27:55;;;;;;;12.55;5.68;;;10.90;99.90;;;;;;5012683;28;20042;-72
2023/03/10 00:30:21;;;;;;;11.95;5.90;;;11.00;99.90;;;;;;5012154;28;20490;-72
2023/03/10 00:32:46;;;;;;;14.15;6.05;;;10.90;99.90;;;;;;4999145;28;20025;-72
2023/03/10 00:35:12;;;;;;;12.43;5.40;;;10.90;99.90;;;;;;4985338;28;22072;-71
2023/03/10 00:37:38;;;;;;;7.82;3.67;;;10.90;99.90;;;;;;5004312;28;20095;-72
2023/03/10 00:40:06;;;;;;;7.63;3.80;;;10.90;99.90;;;;;;5011828;28;20026;-72
2023/03/10 00:42:32;;;;;;;5.78;3.47;;;10.90;99.90;;;;;;4990842;28;20467;-73
2023/03/10 00:44:58;;;;;;;8.25;4.22;;;10.90;99.90;;;;;;5000373;28;20088;-72
2023/03/10 00:47:23;;;;;;;6.85;4.10;;;10.90;99.90;;;;;;5022090;28;20122;-72
2023/03/10 00:49:49;;;;;;;5.68;3.47;;;10.90;99.90;;;;;;4999891;28;20095;-72
2023/03/10 00:52:15;;;;;;;7.75;3.92;;;10.90;99.90;;;;;;4996704;28;20079;-72
2023/03/10 00:54:42;;;;;;;6.20;4.50;;;11.00;99.90;;;;;;5002161;28;20039;-72
2023/03/10 00:57:08;;;;;;;10.02;5.05;;;11.00;99.90;;;;;;4995569;28;21685;-73
2023/03/10 00:59:34;;;;;;;11.75;5.25;;;11.00;99.90;;;;;;4993413;28;20079;-72
2023/03/10 01:01:59;;;;;;;12.43;5.90;;;11.00;99.90;;;;;;5009659;28;20028;-72
2023/03/10 01:04:25;;;;;;;12.38;5.68;;;11.00;99.90;;;;;;4998941;28;20053;-72
2023/03/10 01:06:51;;;;;;;11.68;6.38;;;11.00;99.90;;;;;;5010178;28;20522;-72
2023/03/10 01:09:17;;;;;;;14.98;6.95;;;11.00;99.90;;;;;;4991776;28;20030;-72
2023/03/10 01:11:42;;;;;;;12.50;6.03;;;11.10;99.90;;;;;;5003391;28;20046;-73
2023/03/10 01:14:12;;;;;;;17.40;7.18;;;11.10;99.90;;;;;;4993956;28;20030;-73
2023/03/10 01:16:38;;;;;;;10.88;6.47;;;11.10;99.90;;;;;;4998340;28;20067;-72
2023/03/10 01:19:04;;;;;;;14.88;6.43;;;11.10;99.90;;;;;;4989120;28;20034;-72
2023/03/10 01:21:32;;;;;;;14.85;7.05;;;11.10;99.90;;;;;;4995035;28;20478;-72
2023/03/10 01:23:58;;;;;;;17.00;7.80;;;11.10;99.90;;;;;;5001538;28;20445;-72
2023/03/10 01:26:24;;;;;;;16.35;7.90;;;11.10;99.90;;;;;;5004451;28;20030;-72
2023/03/10 01:28:50;;;;;;;18.15;8.32;;;11.10;99.90;;;;;;5004413;28;20045;-71
2023/03/10 01:31:17;;;;;;;21.10;9.27;;;11.10;99.90;;;;;;4990284;28;20026;-73
2023/03/10 01:33:44;;;;;;;20.13;8.50;;;11.00;99.90;;;;;;4998233;28;20027;-73
2023/03/10 01:36:22;;;;;;;17.15;8.60;;;11.00;99.90;;;;;;4994360;28;20440;-72
2023/03/10 01:38:48;;;;;;;17.83;9.27;;;11.00;99.90;;;;;;5004245;28;20023;-71
2023/03/10 01:41:15;;;;;;;18.77;7.50;;;11.00;99.90;;;;;;5006841;28;20030;-72
2023/03/10 01:43:43;;;;;;;16.00;8.80;;;11.00;99.90;;;;;;5007214;28;20409;-72
2023/03/10 01:46:35;;;;;;;19.90;8.02;;;10.90;99.90;;;;;;4998365;28;20050;-72
2023/03/10 01:49:12;;;;;;;22.15;7.55;;;10.90;99.90;;;;;;4990454;28;20030;-72
2023/03/10 01:51:40;;;;;;;14.52;7.05;;;11.00;99.90;;;;;;5011747;28;20478;-72
2023/03/10 01:54:10;;;;;;;12.52;7.22;;;11.00;99.90;;;;;;4983093;28;20030;-72
2023/03/10 01:56:36;;;;;;;17.52;7.03;;;11.00;99.90;;;;;;5067134;28;20037;-71
2023/03/10 01:59:03;;;;;;;13.32;6.75;;;11.00;99.90;;;;;;5001908;28;20010;-73
2023/03/10 02:01:29;;;;;;;15.73;6.32;;;11.10;99.90;;;;;;4995967;28;20026;-72
2023/03/10 02:04:10;;;;;;;13.52;6.13;;;11.10;99.90;;;;;;5002822;28;20549;-72
2023/03/10 02:06:37;;;;;;;13.52;6.38;;;11.10;99.90;;;;;;4998428;28;20034;-73
2023/03/10 02:09:04;;;;;;;13.15;6.63;;;11.00;99.90;;;;;;5012065;28;20027;-71
2023/03/10 02:11:30;;;;;;;10.10;5.32;;;11.10;99.90;;;;;;4993494;28;20038;-72
2023/03/10 02:13:55;;;;;;;14.15;5.50;;;11.00;99.90;;;;;;4995223;28;20029;-74
2023/03/10 02:16:21;;;;;;;12.05;5.15;;;11.00;99.90;;;;;;4999754;28;20483;-73
2023/03/10 02:18:48;;;;;;;14.70;5.90;;;11.00;99.90;;;;;;5005830;28;20132;-73
2023/03/10 02:21:25;;;;;;;18.30;6.10;;;11.00;99.90;;;;;;5005423;28;20142;-73
2023/03/10 02:24:21;;;;;;;10.90;5.35;;;11.10;99.90;;;;;;5004998;28;20037;-72
2023/03/10 02:26:50;;;;;;;18.45;6.40;;;11.10;99.90;;;;;;4991378;28;20560;-72
2023/03/10 02:29:27;;;;;;;19.50;5.63;;;11.10;99.90;;;;;;4986765;28;20034;-72
2023/03/10 02:31:55;;;;;;;21.13;6.60;;;11.10;99.90;;;;;;5001409;28;20084;-74
2023/03/10 02:34:22;;;;;;;21.40;6.75;;;11.10;99.90;;;;;;4994335;28;20126;-72
2023/03/10 02:36:48;;;;;;;19.25;7.53;;;11.10;99.90;;;;;;4989431;28;20019;-72
2023/03/10 02:39:14;;;;;;;18.95;6.78;;;11.10;99.90;;;;;;4991165;28;20034;-72
2023/03/10 02:41:40;;;;;;;30.35;7.72;;;11.10;99.90;;;;;;4978077;28;20470;-72
2023/03/10 02:44:09;;;;;;;17.75;7.30;;;11.00;99.90;;;;;;5005912;28;20057;-72
2023/03/10 02:46:35;;;;;;;23.85;6.65;;;11.10;99.90;;;;;;4992600;28;20066;-71
2023/03/10 02:49:03;;;;;;;14.20;5.85;;;11.00;99.90;;;;;;5006692;28;20326;-72
2023/03/10 02:51:38;;;;;;;21.00;5.65;;;11.00;99.90;;;;;;4995275;28;20030;-72
2023/03/10 02:54:06;;;;;;;17.77;5.35;;;11.00;99.90;;;;;;5002004;28;20427;-72
2023/03/10 02:56:33;;;;;;;15.60;4.60;;;10.90;99.90;;;;;;4996925;28;20061;-71
2023/03/10 02:58:59;;;;;;;18.50;5.18;;;10.90;99.90;;;;;;4989404;28;20127;-72
2023/03/10 03:01:25;;;;;;;20.23;5.20;;;10.90;99.90;;;;;;4996474;28;20028;-72
2023/03/10 03:03:52;;;;;;;19.60;5.05;;;11.00;99.90;;;;;;4997655;28;20101;-71
2023/03/10 03:06:19;;;;;;;16.08;5.43;;;11.00;99.90;;;;;;5072986;28;20089;-74
2023/03/10 03:08:44;;;;;;;19.63;5.10;;;11.00;99.90;;;;;;4989269;28;20097;-72
2023/03/10 03:11:10;;;;;;;17.80;5.55;;;11.00;99.90;;;;;;4995322;28;20023;-72
2023/03/10 03:13:36;;;;;;;14.50;5.10;;;11.00;99.90;;;;;;4987465;28;20046;-75
2023/03/10 03:16:03;;;;;;;16.33;5.20;;;11.00;99.90;;;;;;4985421;28;20027;-72
2023/03/10 03:18:29;;;;;;;14.18;5.57;;;10.90;99.90;;;;;;4992219;28;20031;-72
2023/03/10 03:20:55;;;;;;;24.02;6.80;;;10.90;99.90;;;;;;5000502;28;20406;-73
2023/03/10 03:23:20;;;;;;;19.95;6.20;;;10.90;99.90;;;;;;4987383;28;20118;-73
2023/03/10 03:25:46;;;;;;;22.75;6.22;;;10.90;99.90;;;;;;4983848;28;20049;-72
2023/03/10 03:28:12;;;;;;;16.90;5.60;;;10.90;99.90;;;;;;4992256;28;20023;-72
2023/03/10 03:30:38;;;;;;;14.85;5.45;;;10.80;99.90;;;;;;4999325;28;20088;-74
2023/03/10 03:33:05;;;;;;;18.70;6.30;;;10.80;99.90;;;;;;4989622;28;20015;-72
2023/03/10 03:35:33;;;;;;;18.23;6.60;;;10.80;99.90;;;;;;4985606;28;20299;-72
2023/03/10 03:38:00;;;;;;;14.10;6.13;;;10.90;99.90;;;;;;4989483;28;20038;-72
2023/03/10 03:40:27;;;;;;;14.55;5.72;;;10.90;99.90;;;;;;4996459;28;20039;-72
2023/03/10 03:42:54;;;;;;;15.95;5.90;;;10.90;99.90;;;;;;4986764;28;20030;-73
2023/03/10 03:45:22;;;;;;;20.50;6.70;;;10.90;99.90;;;;;;4994127;28;20046;-72
2023/03/10 03:47:48;;;;;;;18.13;6.15;;;10.90;99.90;;;;;;4983410;28;20152;-72
2023/03/10 03:50:15;;;;;;;23.02;6.10;;;10.80;99.90;;;;;;4998546;28;20125;-72
2023/03/10 03:52:42;;;;;;;23.42;6.63;;;10.80;99.90;;;;;;4990293;28;20049;-73
2023/03/10 03:55:09;;;;;;;20.42;5.93;;;10.80;99.90;;;;;;4983449;28;20066;-72
2023/03/10 03:57:35;;;;;;;17.48;5.57;;;10.80;99.90;;;;;;4997172;28;20026;-73
2023/03/10 04:00:01;;;;;;;21.55;5.43;;;10.80;99.90;;;;;;4995778;28;20022;-72
2023/03/10 04:02:27;;;;;;;21.42;5.50;;;10.80;99.90;;;;;;4994734;28;20508;-72
2023/03/10 04:04:53;;;;;;;20.42;5.20;;;10.80;99.90;;;;;;5000572;28;20030;-73
2023/03/10 04:07:19;;;;;;;16.40;5.25;;;10.70;99.90;;;;;;4996556;28;20041;-72
2023/03/10 04:09:45;;;;;;;16.95;5.15;;;10.60;99.90;;;;;;4991873;28;20027;-72
2023/03/10 04:12:10;;;;;;;28.38;5.32;;;10.60;99.90;;;;;;4994113;28;20024;-72
2023/03/10 04:14:36;;;;;;;20.85;5.63;;;10.60;99.90;;;;;;4994497;28;20113;-72
2023/03/10 04:17:03;;;;;;;22.15;5.10;;;10.60;99.90;;;;;;5005696;28;20019;-72
2023/03/10 04:19:29;;;;;;;16.40;5.43;;;10.60;99.90;;;;;;4990413;28;20033;-73
2023/03/10 04:21:55;;;;;;;18.58;4.88;;;10.50;99.90;;;;;;4998369;28;20033;-72
2023/03/10 04:24:21;;;;;;;27.27;5.80;;;10.40;99.90;;;;;;4984951;28;20031;-72
2023/03/10 04:26:47;;;;;;;21.23;5.05;;;10.50;99.90;;;;;;4999069;28;20063;-72
2023/03/10 04:29:13;;;;;;;24.75;6.13;;;10.50;99.90;;;;;;5000503;28;20661;-72
2023/03/10 04:31:38;;;;;;;22.33;5.25;;;10.60;99.90;;;;;;4991745;28;20083;-75
2023/03/10 04:34:04;;;;;;;21.00;5.40;;;10.50;99.90;;;;;;4996042;28;20023;-73
2023/03/10 04:36:30;;;;;;;17.90;5.20;;;10.50;99.90;;;;;;4994379;28;20031;-74
2023/03/10 04:38:56;;;;;;;25.98;5.68;;;10.50;99.90;;;;;;4995378;28;20031;-73
2023/03/10 04:41:22;;;;;;;22.38;4.60;;;10.50;99.90;;;;;;4989672;28;20122;-73
2023/03/10 04:43:48;;;;;;;26.17;5.00;;;10.50;99.90;;;;;;4993051;28;20072;-73
2023/03/10 04:46:14;;;;;;;19.48;4.90;;;10.40;99.90;;;;;;4989943;28;20080;-73
2023/03/10 04:48:40;;;;;;;18.85;4.53;;;10.40;99.90;;;;;;4990701;28;20444;-74
2023/03/10 04:51:08;;;;;;;24.30;4.50;;;10.50;99.90;;;;;;4993631;28;20034;-73
2023/03/10 04:53:35;;;;;;;24.85;4.95;;;10.40;99.90;;;;;;4991050;28;20441;-73
2023/03/10 04:56:02;;;;;;;23.85;4.75;;;10.40;99.90;;;;;;5001925;28;20026;-73
2023/03/10 04:58:28;;;;;;;16.42;4.40;;;10.40;99.90;;;;;;4988430;28;20458;-74
2023/03/10 05:00:55;;;;;;;28.40;4.97;;;10.40;99.90;;;;;;5001239;28;20050;-72
2023/03/10 05:03:20;;;;;;;20.48;5.25;;;10.40;99.90;;;;;;4988789;28;20034;-73
2023/03/10 05:05:46;;;;;;;23.92;4.53;;;10.40;99.90;;;;;;4981559;28;20447;-72
2023/03/10 05:08:11;;;;;;;23.42;5.00;;;10.40;99.90;;;;;;4991202;28;20039;-73
2023/03/10 05:10:42;;;;;;;17.73;4.50;;;10.30;99.90;;;;;;4993623;28;20447;-73
2023/03/10 05:13:11;;;;;;;20.88;5.13;;;10.40;99.90;;;;;;4989725;28;20469;-72
2023/03/10 05:15:38;;;;;;;18.25;3.63;;;10.30;99.90;;;;;;4993889;28;20015;-72
2023/03/10 05:18:04;;;;;;;17.92;3.85;;;10.40;99.90;;;;;;4997083;28;20441;-72
2023/03/10 05:20:30;;;;;;;29.33;5.50;;;10.30;99.90;;;;;;4983514;28;20041;-73
2023/03/10 05:22:56;;;;;;;33.45;4.70;;;10.40;99.90;;;;;;4995383;28;20042;-73
2023/03/10 05:25:21;;;;;;;33.03;5.40;;;10.40;99.90;;;;;;4993968;28;20056;-73
2023/03/10 05:27:47;;;;;;;23.05;4.38;;;10.30;99.90;;;;;;4993098;28;20065;-72
2023/03/10 05:30:14;;;;;;;22.20;4.03;;;10.30;99.90;;;;;;4980377;28;20095;-72
2023/03/10 05:32:42;;;;;;;23.10;4.32;;;10.30;99.90;;;;;;4982997;28;20025;-72
2023/03/10 05:35:08;;;;;;;18.33;3.97;;;10.30;99.90;;;;;;4994330;28;20028;-73
2023/03/10 05:37:38;;;;;;;23.30;4.57;;;10.30;99.90;;;;;;4995916;28;20106;-72
2023/03/10 05:40:18;;;;;;;24.05;3.80;;;10.30;99.90;;;;;;4995777;28;20084;-73
2023/03/10 05:42:45;;;;;;;15.85;3.67;;;10.30;99.90;;;;;;4994718;28;20030;-73
2023/03/10 05:45:11;;;;;;;21.20;3.60;;;10.20;99.90;;;;;;4990812;28;20058;-73
2023/03/10 05:47:37;;;;;;;27.05;4.03;;;10.30;99.90;;;;;;4996070;28;20102;-72
2023/03/10 05:50:03;;;;;;;8.95;2.53;;;10.30;99.90;;;;;;4999868;28;20114;-72
2023/03/10 05:52:29;;;;;;;14.25;3.63;;;10.30;99.90;;;;;;4993755;28;20040;-73
2023/03/10 05:54:54;;;;;;;13.38;3.65;;;10.30;99.90;;;;;;5001563;28;20034;-74
2023/03/10 05:57:20;;;;;;;11.77;3.65;;;10.30;99.90;;;;;;4997310;28;20054;-74
2023/03/10 05:59:46;;;;;;;15.77;3.65;;;10.30;99.90;;;;;;4996349;28;20364;-74
2023/03/10 06:02:12;;;;;;;14.73;3.80;;;10.30;99.90;;;;;;4994372;28;20016;-73
2023/03/10 06:04:37;;;;;;;18.33;3.28;;;10.30;99.90;;;;;;4996742;28;20053;-73
2023/03/10 06:07:04;;;;;;;21.63;3.08;;;10.30;99.90;;;;;;4992592;28;20080;-73
2023/03/10 06:09:31;;;;;;;18.98;2.58;;;10.30;99.90;;;;;;4995872;28;20044;-73
2023/03/10 06:11:58;;;;;;;16.77;3.10;;;10.30;99.90;;;;;;4993132;28;20110;-75
2023/03/10 06:14:24;;;;;;;12.73;2.70;;;10.30;99.90;;;;;;4994527;28;20129;-73
2023/03/10 06:16:52;;;;;;;16.10;3.30;;;10.30;99.90;;;;;;4994879;28;20093;-73
2023/03/10 06:19:19;;;;;;;17.02;2.17;;;10.40;99.90;;;;;;4984894;28;20479;-73
2023/03/10 06:21:45;;;;;;;8.98;2.30;;;10.30;99.90;;;;;;4997430;28;20105;-72
2023/03/10 06:24:11;;;;;;;16.10;2.08;;;10.30;99.90;;;;;;5016161;28;20124;-74
2023/03/10 06:26:37;;;;;;;15.27;2.20;;;10.30;99.90;;;;;;4995963;28;20037;-74
2023/03/10 06:29:03;;;;;;;15.90;3.10;;;10.30;99.90;;;;;;4995419;28;20495;-74
2023/03/10 06:31:29;;;;;;;10.98;2.25;;;10.30;99.90;;;;;;4998077;28;20033;-74
2023/03/10 06:33:55;;;;;;;11.52;2.63;;;10.30;99.90;;;;;;5000636;28;20022;-74
2023/03/10 06:36:22;;;;;;;9.70;2.40;;;10.30;99.90;;;;;;4991291;28;20023;-73
2023/03/10 06:38:48;;;;;;;13.35;1.90;;;10.30;99.90;;;;;;4997237;28;20037;-73
2023/03/10 06:41:13;;;;;;;6.88;2.08;;;10.30;99.90;;;;;;4996741;28;20031;-73
2023/03/10 06:43:39;;;;;;;15.20;3.03;;;10.30;99.90;;;;;;4994213;28;20030;-74
2023/03/10 06:46:07;;;;;;;8.68;2.03;;;10.20;99.90;;;;;;4996793;28;20034;-74
2023/03/10 06:48:35;;;;;;;7.97;1.67;;;10.20;99.90;;;;;;4995416;28;20486;-74
2023/03/10 06:51:01;;;;;;;7.68;1.60;;;10.20;99.90;;;;;;4992418;28;20049;-74
2023/03/10 06:53:27;;;;;;;12.23;1.80;;;10.20;99.90;;;;;;5011893;28;20019;-74
2023/03/10 06:56:10;;;;;;;8.55;1.63;;;10.30;99.90;;;;;;4995616;28;20123;-73
2023/03/10 06:58:37;;;;;;;9.75;2.03;;;10.30;99.90;;;;;;4989554;28;20034;-74
2023/03/10 07:01:03;;;;;;;9.65;1.75;;;10.30;99.90;;;;;;4986985;28;20042;-74
2023/03/10 07:03:29;;;;;;;10.27;2.28;;;10.30;99.90;;;;;;4996220;28;20132;-74
2023/03/10 07:05:59;;;;;;;9.95;2.05;;;10.30;99.90;;;;;;5003261;28;20485;-74
2023/03/10 07:08:26;;;;;;;10.25;2.53;;;10.30;99.90;;;;;;4990749;28;20030;-74
2023/03/10 07:10:52;;;;;;;15.20;2.00;;;10.40;99.90;;;;;;4996230;28;20632;-74
2023/03/10 07:13:18;;;;;;;12.27;1.80;;;10.40;99.90;;;;;;4996783;28;20026;-74
2023/03/10 07:15:45;;;;;;;9.73;1.95;;;10.50;99.90;;;;;;4986567;28;20042;-74
2023/03/10 07:18:11;;;;;;;6.63;2.13;;;10.50;99.90;;;;;;4993706;28;20117;-74
2023/03/10 07:20:41;;;;;;;11.50;1.70;;;10.50;99.90;;;;;;4996803;28;20030;-74
2023/03/10 07:23:07;;;;;;;12.90;2.13;;;10.60;99.90;;;;;;4994862;28;20028;-74
2023/03/10 07:25:37;;;;;;;13.93;2.28;;;10.60;99.90;;;;;;4981008;28;20050;-73
2023/03/10 07:28:04;;;;;;;10.30;2.35;;;10.60;99.90;;;;;;4996820;28;20034;-74
2023/03/10 07:30:31;;;;;;;10.05;2.45;;;10.60;99.90;;;;;;4995735;28;20045;-73
2023/03/10 07:32:56;;;;;;;8.13;2.25;;;10.60;99.90;;;;;;4983074;28;20034;-75
2023/03/10 07:35:22;;;;;;;14.45;2.72;;;10.60;99.90;;;;;;4999088;28;20030;-74
2023/03/10 07:37:48;;;;;;;12.40;3.08;;;10.70;99.90;;;;;;4989276;28;20030;-74
2023/03/10 07:40:14;;;;;;;14.43;3.45;;;10.70;99.90;;;;;;5001021;28;20035;-74
2023/03/10 07:42:42;;;;;;;10.50;2.55;;;10.70;99.90;;;;;;4978652;28;20027;-75
2023/03/10 07:45:08;;;;;;;14.40;2.72;;;10.80;99.90;;;;;;4990874;28;20030;-76
2023/03/10 07:47:33;;;;;;;19.13;3.67;;;10.80;99.90;;;;;;4988912;28;20080;-74
2023/03/10 07:49:59;;;;;;;10.45;2.95;;;10.90;99.90;;;;;;4986152;28;20467;-75
2023/03/10 07:52:24;;;;;;;14.27;3.63;;;10.90;99.90;;;;;;4989723;28;20432;-74
2023/03/10 07:54:50;;;;;;;14.18;4.45;;;10.90;99.90;;;;;;4987210;28;20034;-74
2023/03/10 07:57:16;;;;;;;10.18;3.00;;;11.00;99.90;;;;;;4991417;28;20106;-75
2023/03/10 07:59:41;;;;;;;11.27;3.20;;;11.10;99.90;;;;;;4978999;28;20084;-75
2023/03/10 08:02:11;;;;;;;17.80;3.65;;;11.20;99.90;;;;;;4999718;28;20058;-74
2023/03/10 08:04:36;;;;;;;13.27;3.58;;;11.30;99.90;;;;;;4985837;28;20030;-76
2023/03/10 08:07:02;;;;;;;17.90;3.25;;;11.40;99.90;;;;;;4999311;28;20701;-75
2023/03/10 08:09:29;;;;;;;17.27;2.92;;;11.40;99.90;;;;;;4987258;28;20076;-75
2023/03/10 08:11:57;;;;;;;12.15;3.65;;;11.50;99.90;;;;;;4993586;28;20435;-77
2023/03/10 08:14:22;;;;;;;200.55;20.02;;;11.60;99.90;;;;;;4984453;28;20022;-75
2023/03/10 08:16:49;;;;;;;20.77;4.32;;;11.60;99.90;;;;;;4980297;28;20447;-75
2023/03/10 08:19:15;;;;;;;19.02;3.63;;;11.60;99.90;;;;;;4991992;28;20475;-75
2023/03/10 08:21:42;;;;;;;14.60;2.95;;;11.70;99.90;;;;;;4981618;28;20038;-75
2023/03/10 08:24:08;;;;;;;14.48;3.17;;;11.80;99.90;;;;;;4991508;28;20027;-74
2023/03/10 08:26:34;;;;;;;14.30;2.88;;;11.70;99.90;;;;;;5004996;28;20066;-78
2023/03/10 08:29:00;;;;;;;13.75;3.20;;;11.80;99.90;;;;;;4984543;28;20417;-75
2023/03/10 08:31:26;;;;;;;15.70;3.50;;;11.90;99.90;;;;;;4996008;28;20041;-76
2023/03/10 08:33:55;;;;;;;21.33;4.00;;;11.90;99.90;;;;;;4982127;28;20026;-77
2023/03/10 08:36:23;;;;;;;17.10;3.30;;;11.90;99.90;;;;;;4986185;28;20100;-75
2023/03/10 08:38:51;;;;;;;18.90;3.13;;;12.00;99.90;;;;;;4987293;28;20026;-74
2023/03/10 08:41:21;;;;;;;23.20;4.13;;;12.00;99.90;;;;;;4980490;28;20035;-75
2023/03/10 08:43:47;;;;;;;21.05;4.20;;;12.00;99.90;;;;;;4984540;28;20113;-74
2023/03/10 08:46:13;;;;;;;15.00;4.03;;;12.10;99.90;;;;;;4988061;28;20038;-75
2023/03/10 08:48:39;;;;;;;20.92;3.90;;;12.10;99.90;;;;;;4984466;28;20493;-74
2023/03/10 08:51:07;;;;;;;18.48;4.07;;;12.20;99.90;;;;;;4995517;28;20045;-75
2023/03/10 08:53:34;;;;;;;20.92;3.90;;;12.30;99.90;;;;;;4985016;28;20038;-75
2023/03/10 08:56:00;;;;;;;24.25;4.30;;;12.40;99.90;;;;;;4984710;28;20039;-75
2023/03/10 08:58:26;;;;;;;77.80;11.82;;;12.40;99.90;;;;;;4975120;28;20076;-75
2023/03/10 09:00:51;;;;;;;18.05;3.67;;;12.30;99.90;;;;;;4984882;28;20042;-76
2023/03/10 09:03:18;;;;;;;21.60;3.50;;;12.30;99.90;;;;;;4995976;28;20026;-74
2023/03/10 09:05:44;;;;;;;18.80;4.20;;;12.30;99.90;;;;;;4990809;28;21399;-75
2023/03/10 09:08:10;;;;;;;22.95;4.43;;;12.30;99.90;;;;;;4981892;28;20054;-73
2023/03/10 09:10:36;;;;;;;18.58;3.80;;;12.30;99.90;;;;;;4993252;28;20023;-73
2023/03/10 09:13:02;;;;;;;17.77;3.25;;;12.30;99.90;;;;;;4991738;28;20033;-72
2023/03/10 09:15:28;;;;;;;17.75;3.13;;;12.20;99.90;;;;;;4993669;28;20027;-73
2023/03/10 09:17:54;;;;;;;17.42;3.28;;;12.20;99.90;;;;;;4994775;28;20079;-74
2023/03/10 09:20:24;;;;;;;20.05;3.92;;;12.10;99.90;;;;;;4985899;28;20034;-74
2023/03/10 09:22:51;;;;;;;14.18;3.40;;;12.10;99.90;;;;;;4991376;28;20041;-73
2023/03/10 09:25:16;;;;;;;13.43;3.13;;;12.00;99.90;;;;;;4988977;28;20560;-73
2023/03/10 09:27:42;;;;;;;13.00;2.63;;;12.00;99.90;;;;;;4990854;28;20038;-73
2023/03/10 09:30:08;;;;;;;12.82;2.58;;;12.00;99.90;;;;;;4996703;28;20526;-73
2023/03/10 09:32:34;;;;;;;12.27;2.72;;;12.00;99.90;;;;;;4998053;28;20026;-73
2023/03/10 09:35:00;;;;;;;15.27;2.40;;;12.10;99.90;;;;;;4991273;28;20035;-74
2023/03/10 09:37:25;;;;;;;14.43;2.53;;;12.10;99.90;;;;;;4990827;28;20035;-73
2023/03/10 09:39:52;;;;;;;13.48;3.28;;;12.10;99.90;;;;;;4993362;28;20863;-74
2023/03/10 09:42:33;;;;;;;14.23;3.75;;;12.10;99.90;;;;;;4993583;28;20030;-74
2023/03/10 09:45:11;;;;;;;17.45;2.92;;;12.20;99.90;;;;;;4993092;28;20507;-79
2023/03/10 09:47:56;;;;;;;13.27;3.05;;;12.20;99.90;;;;;;4986601;28;20382;-75
2023/03/10 09:50:45;;;;;;;15.43;3.05;;;12.30;99.90;;;;;;4989236;28;20031;-75
2023/03/10 09:53:29;;;;;;;16.23;2.85;;;12.20;99.90;;;;;;4982423;28;20034;-78
2023/03/10 09:55:55;;;;;;;13.27;2.78;;;12.20;99.90;;;;;;4995388;28;20183;-77
2023/03/10 09:58:37;;;;;;;12.20;2.60;;;12.20;99.90;;;;;;4993826;28;20033;-72
2023/03/10 10:01:05;;;;;;;12.98;3.08;;;12.10;99.90;;;;;;4985467;28;20031;-72
2023/03/10 10:03:41;;;;;;;14.93;3.38;;;12.10;99.90;;;;;;4990320;28;20075;-73
2023/03/10 10:06:13;;;;;;;13.05;2.85;;;12.00;99.90;;;;;;4997853;28;20036;-73
2023/03/10 10:08:47;;;;;;;10.50;2.90;;;12.00;99.90;;;;;;4985427;28;20023;-72
2023/03/10 10:11:16;;;;;;;21.40;4.05;;;12.00;99.90;;;;;;4985683;28;20034;-72
2023/03/10 10:13:42;;;;;;;17.63;3.47;;;12.00;99.90;;;;;;4991047;28;20498;-72
2023/03/10 10:16:36;;;;;;;13.18;3.80;;;11.90;99.90;;;;;;4997497;28;20042;-72
2023/03/10 10:19:13;;;;;;;13.18;3.50;;;11.80;99.90;;;;;;4989066;28;20079;-73
2023/03/10 10:21:52;;;;;;;14.90;3.13;;;11.80;99.90;;;;;;5010790;28;20105;-72
2023/03/10 10:24:19;;;;;;;13.95;2.67;;;11.80;99.90;;;;;;4989871;28;20406;-73
2023/03/10 10:26:44;;;;;;;13.45;3.50;;;11.70;99.90;;;;;;4995742;28;20367;-73
2023/03/10 10:29:22;;;;;;;11.07;3.17;;;11.70;99.90;;;;;;4988926;28;20475;-74
2023/03/10 10:32:20;;;;;;;15.20;3.22;;;11.70;99.90;;;;;;4992188;28;20030;-74
2023/03/10 10:34:48;;;;;;;13.15;3.35;;;11.70;99.90;;;;;;4977397;28;20067;-74
2023/03/10 10:37:41;;;;;;;18.17;3.67;;;11.70;99.90;;;;;;4987522;28;20162;-76
2023/03/10 10:40:25;;;;;;;14.70;3.47;;;11.70;99.90;;;;;;4996829;28;20092;-76
2023/03/10 10:42:54;;;;;;;18.20;3.83;;;11.60;99.90;;;;;;4996410;28;20063;-75
2023/03/10 10:45:30;;;;;;;11.45;2.55;;;11.50;99.90;;;;;;4984229;28;20060;-76
2023/03/10 10:47:57;;;;;;;9.68;2.58;;;11.50;99.90;;;;;;4997139;28;20042;-76
2023/03/10 10:50:25;;;;;;;8.10;3.00;;;11.40;99.90;;;;;;5002698;28;20117;-75
2023/03/10 10:53:13;;;;;;;8.60;3.33;;;11.50;99.90;;;;;;4993961;28;20061;-75
2023/03/10 10:55:40;;;;;;;9.65;2.63;;;11.50;99.90;;;;;;4987552;28;20066;-75
2023/03/10 10:58:24;;;;;;;11.15;3.25;;;11.60;99.90;;;;;;4991509;28;20022;-74
2023/03/10 11:00:57;;;;;;;10.60;3.00;;;11.50;99.90;;;;;;4991493;28;20096;-75
2023/03/10 11:03:28;;;;;;;;;;;11.60;99.90;;;;;;4991938;28;20041;-72
2023/03/10 11:05:54;;;;;;;8.43;2.50;;;11.50;99.90;;;;;;4992548;28;20366;-75
2023/03/10 11:08:26;;;;;;;15.15;2.50;;;11.50;99.90;;;;;;5014075;28;20026;-75
2023/03/10 11:10:58;;;;;;;10.35;2.67;;;11.70;99.90;;;;;;4992595;28;20139;-74
2023/03/10 11:13:36;;;;;;;7.50;2.28;;;11.50;99.90;;;;;;4989706;28;20041;-74
2023/03/10 11:16:04;;;;;;;8.20;2.92;;;11.60;99.90;;;;;;4985414;28;20038;-76
2023/03/10 11:18:37;;;;;;;7.68;2.50;;;11.50;99.90;;;;;;4998311;28;20030;-77
2023/03/10 11:21:11;;;;;;;6.05;2.38;;;11.60;99.90;;;;;;4989082;28;20034;-75
2023/03/10 11:23:47;;;;;;;15.02;6.68;;;11.60;99.90;;;;;;4993715;28;20034;-75
2023/03/10 11:26:24;;;;;;;5.63;1.90;;;11.60;99.90;;;;;;4989650;28;20121;-75
2023/03/10 11:29:03;;;;;;;5.97;2.20;;;11.60;99.90;;;;;;4988670;28;20027;-75
2023/03/10 11:31:50;;;;;;;2.42;1.65;;;11.70;99.90;;;;;;4994771;28;20028;-75
2023/03/10 11:34:24;;;;;;;5.32;2.05;;;11.70;99.90;;;;;;4982151;28;20386;-75
2023/03/10 11:37:14;;;;;;;4.95;1.92;;;11.70;99.90;;;;;;4985451;28;20061;-76
2023/03/10 11:39:48;;;;;;;5.97;2.38;;;11.80;99.90;;;;;;4989163;28;20108;-75
2023/03/10 11:42:24;;;;;;;4.30;1.80;;;11.80;99.90;;;;;;4990130;28;22610;-76
2023/03/10 11:44:55;;;;;;;3.70;2.08;;;11.70;99.90;;;;;;4991362;28;20034;-76
2023/03/10 11:47:47;;;;;;;2.83;1.92;;;11.80;99.90;;;;;;4989744;28;20039;-76
2023/03/10 11:50:21;;;;;;;2.53;1.73;;;11.80;99.90;;;;;;4986812;28;20624;-75
2023/03/10 11:52:52;;;;;;;4.15;2.63;;;11.90;99.90;;;;;;4991495;28;20509;-75
2023/03/10 11:55:20;;;;;;;2.42;1.65;;;12.00;99.90;;;;;;4989316;28;20074;-75
2023/03/10 11:57:51;;;;;;;2.83;1.80;;;12.00;99.90;;;;;;4985390;28;20023;-76
2023/03/10 12:00:28;;;;;;;1.60;1.50;;;11.90;99.90;;;;;;5000947;28;20031;-75
2023/03/10 12:02:59;;;;;;;2.53;1.85;;;11.90;99.90;;;;;;4994646;28;20481;-75
2023/03/10 12:05:28;;;;;;;5.45;1.90;;;12.00;99.90;;;;;;4995087;28;20038;-76
2023/03/10 12:07:59;;;;;;;2.22;2.00;;;12.00;99.90;;;;;;4976828;28;20030;-76
2023/03/10 12:10:25;;;;;;;2.60;1.88;;;12.00;99.90;;;;;;4982051;28;20120;-75
2023/03/10 12:12:52;;;;;;;2.30;2.03;;;12.00;99.90;;;;;;4988281;28;20032;-75
2023/03/10 12:15:29;;;;;;;3.88;2.38;;;11.90;99.90;;;;;;4989205;28;20064;-76
2023/03/10 12:17:55;;;;;;;4.03;2.60;;;12.00;99.90;;;;;;4982161;28;20078;-76
2023/03/10 12:20:23;;;;;;;3.60;2.70;;;12.00;99.90;;;;;;4986452;28;20031;-76
2023/03/10 12:22:56;;;;;;;3.70;2.65;;;12.10;99.90;;;;;;4999964;28;20042;-75
2023/03/10 12:25:28;;;;;;;3.05;2.55;;;12.10;99.90;;;;;;4988804;28;20043;-75
2023/03/10 12:28:17;;;;;;;3.55;3.25;;;12.10;99.90;;;;;;4987587;28;20026;-76
2023/03/10 12:30:59;;;;;;;4.43;3.40;;;12.00;99.90;;;;;;4984987;28;20075;-76
2023/03/10 12:33:38;;;;;;;4.63;3.50;;;12.00;99.90;;;;;;4984247;28;20117;-76
2023/03/10 12:36:36;;;;;;;5.53;3.63;;;12.10;99.90;;;;;;4981711;28;20026;-76
2023/03/10 12:39:27;;;;;;;6.93;3.72;;;12.00;99.90;;;;;;4985029;28;20042;-76
2023/03/10 12:41:58;;;;;;;4.15;3.75;;;12.00;99.90;;;;;;5004877;28;20038;-76
2023/03/10 12:44:35;;;;;;;5.40;4.22;;;12.00;99.90;;;;;;4988185;28;20489;-75
2023/03/10 12:47:07;;;;;;;4.85;3.63;;;12.10;99.90;;;;;;4986889;28;20046;-75